createdAt,value
2023-03-24T00:01:54.320Z,1.50
2023-03-24T00:04:23.114Z,1.52
2023-03-24T00:06:50.669Z,1.60
2023-03-24T00:09:18.048Z,1.80
2023-03-24T00:11:45.448Z,2.00
2023-03-24T00:14:13.031Z,1.77
2023-03-24T00:16:42.928Z,1.70
2023-03-24T00:19:10.719Z,1.85
2023-03-24T00:21:38.407Z,1.80
2023-03-24T00:24:07.370Z,2.00
2023-03-24T00:26:37.410Z,2.25
2023-03-24T00:29:05.651Z,1.75
2023-03-24T00:31:33.108Z,2.03
2023-03-24T00:34:02.792Z,1.80
2023-03-24T00:36:30.223Z,1.85
2023-03-24T00:38:58.836Z,2.20
2023-03-24T00:41:27.465Z,1.90
2023-03-24T00:43:55.801Z,2.00
2023-03-24T00:46:29.204Z,2.25
2023-03-24T00:49:01.885Z,1.95
2023-03-24T00:51:31.705Z,2.30
2023-03-24T00:53:59.273Z,2.00
2023-03-24T00:56:27.707Z,2.30
2023-03-24T00:58:57.613Z,2.80
2023-03-24T01:01:25.959Z,2.13
2023-03-24T01:03:53.365Z,2.70
2023-03-24T01:06:22.294Z,2.40
2023-03-24T01:08:53.889Z,2.33
2023-03-24T01:11:24.131Z,2.67
2023-03-24T01:13:52.173Z,2.22
2023-03-24T01:16:19.610Z,2.45
2023-03-24T01:18:47.040Z,2.28
2023-03-24T01:21:14.383Z,2.20
2023-03-24T01:23:42.907Z,2.20
2023-03-24T01:26:11.926Z,2.30
2023-03-24T01:28:40.966Z,1.90
2023-03-24T01:31:09.314Z,2.65
2023-03-24T01:33:37.054Z,2.75
2023-03-24T01:36:04.904Z,2.50
2023-03-24T01:38:32.427Z,2.30
2023-03-24T01:40:59.817Z,2.47
2023-03-24T01:43:31.103Z,2.60
2023-03-24T01:46:22.563Z,2.45
2023-03-24T01:48:52.086Z,2.85
2023-03-24T01:51:21.983Z,2.58
2023-03-24T01:53:51.904Z,2.20
2023-03-24T01:56:19.457Z,2.25
2023-03-24T01:58:50.526Z,2.50
2023-03-24T02:01:19.048Z,2.33
2023-03-24T02:03:47.004Z,1.65
2023-03-24T02:06:15.520Z,2.63
2023-03-24T02:08:45.418Z,2.30
2023-03-24T02:11:12.988Z,2.50
2023-03-24T02:13:40.349Z,2.80
2023-03-24T02:16:14.813Z,2.60
2023-03-24T02:18:45.800Z,2.88
2023-03-24T02:21:28.106Z,2.67
2023-03-24T02:23:58.912Z,3.00
2023-03-24T02:26:39.701Z,3.00
2023-03-24T02:29:16.463Z,2.88
2023-03-24T02:32:10.088Z,3.00
2023-03-24T02:34:50.870Z,3.03
2023-03-24T02:37:34.796Z,3.00
2023-03-24T02:40:11.460Z,2.53
2023-03-24T02:42:43.334Z,3.20
2023-03-24T02:45:16.901Z,2.80
2023-03-24T02:47:47.198Z,1.90
2023-03-24T02:50:17.711Z,2.70
2023-03-24T02:52:47.021Z,2.58
2023-03-24T02:55:17.483Z,3.17
2023-03-24T02:57:49.205Z,3.30
2023-03-24T03:00:21.282Z,2.28
2023-03-24T03:02:53.901Z,3.30
2023-03-24T03:05:24.149Z,3.20
2023-03-24T03:07:52.747Z,3.30
2023-03-24T03:10:24.878Z,3.50
2023-03-24T03:12:54.887Z,3.25
2023-03-24T03:15:23.970Z,2.78
2023-03-24T03:17:53.757Z,3.05
2023-03-24T03:20:22.553Z,2.53
2023-03-24T03:22:51.668Z,2.22
2023-03-24T03:25:23.036Z,2.83
2023-03-24T03:27:52.875Z,2.92
2023-03-24T03:30:24.032Z,2.42
2023-03-24T03:32:55.959Z,2.47
2023-03-24T03:35:25.575Z,1.90
2023-03-24T03:37:55.087Z,2.20
2023-03-24T03:40:25.156Z,2.20
2023-03-24T03:42:52.675Z,2.75
2023-03-24T03:45:20.137Z,2.55
2023-03-24T03:47:48.021Z,2.58
2023-03-24T03:50:15.424Z,2.90
2023-03-24T03:52:44.574Z,2.45
2023-03-24T03:55:12.505Z,2.20
2023-03-24T03:57:41.948Z,2.78
2023-03-24T04:00:11.875Z,3.03
2023-03-24T04:02:45.296Z,2.78
2023-03-24T04:05:30.629Z,2.40
2023-03-24T04:10:31.380Z,1.98
2023-03-24T04:13:06.607Z,2.35
2023-03-24T04:15:35.845Z,2.05
2023-03-24T04:18:15.738Z,1.85
2023-03-24T04:20:47.260Z,1.67
2023-03-24T04:23:18.337Z,1.48
2023-03-24T04:25:50.663Z,1.70
2023-03-24T04:28:26.169Z,1.60
2023-03-24T04:30:56.836Z,1.70
2023-03-24T04:33:28.749Z,1.55
2023-03-24T04:35:58.159Z,2.00
2023-03-24T04:38:27.691Z,1.90
2023-03-24T04:40:56.626Z,2.33
2023-03-24T04:46:10.742Z,1.17
2023-03-24T04:48:38.130Z,1.48
2023-03-24T04:51:05.812Z,1.90
2023-03-24T04:53:33.063Z,1.58
2023-03-24T04:56:08.348Z,1.98
2023-03-24T04:58:35.657Z,1.70
2023-03-24T05:01:03.143Z,2.17
2023-03-24T05:03:31.863Z,2.63
2023-03-24T05:05:59.376Z,2.38
2023-03-24T05:08:26.744Z,2.40
2023-03-24T05:10:54.019Z,2.17
2023-03-24T05:13:21.324Z,2.08
2023-03-24T05:15:48.587Z,1.92
2023-03-24T05:18:16.102Z,2.30
2023-03-24T05:20:44.764Z,2.08
2023-03-24T05:23:12.092Z,1.98
2023-03-24T05:25:39.461Z,2.20
2023-03-24T05:28:06.847Z,1.95
2023-03-24T05:30:34.464Z,2.05
2023-03-24T05:33:01.887Z,2.30
2023-03-24T05:35:29.202Z,1.90
2023-03-24T05:37:57.864Z,2.10
2023-03-24T05:40:25.143Z,2.13
2023-03-24T05:42:52.849Z,1.60
2023-03-24T05:45:20.476Z,2.28
2023-03-24T05:47:48.054Z,2.10
2023-03-24T05:50:15.418Z,1.85
2023-03-24T05:52:42.764Z,1.60
2023-03-24T05:55:11.546Z,1.73
2023-03-24T05:57:38.934Z,1.70
2023-03-24T06:00:09.407Z,1.60
2023-03-24T06:02:36.959Z,1.50
2023-03-24T06:05:04.867Z,2.10
2023-03-24T06:07:32.213Z,1.65
2023-03-24T06:10:02.894Z,1.70
2023-03-24T06:12:31.913Z,2.30
2023-03-24T06:15:00.772Z,2.17
2023-03-24T06:17:30.238Z,2.25
2023-03-24T06:20:02.636Z,2.30
2023-03-24T06:22:30.659Z,2.05
2023-03-24T06:24:58.609Z,2.90
2023-03-24T06:27:29.917Z,2.00
2023-03-24T06:29:58.722Z,2.22
2023-03-24T06:32:26.144Z,3.00
2023-03-24T06:34:53.647Z,2.10
2023-03-24T06:37:22.795Z,2.22
2023-03-24T06:39:50.252Z,2.40
2023-03-24T06:42:18.437Z,2.67
2023-03-24T06:44:45.820Z,2.60
2023-03-24T06:47:14.487Z,3.35
2023-03-24T06:49:42.049Z,3.63
2023-03-24T06:52:09.484Z,3.45
2023-03-24T06:54:37.448Z,3.75
2023-03-24T06:57:04.821Z,3.70
2023-03-24T06:59:32.346Z,3.33
2023-03-24T07:01:59.695Z,3.42
2023-03-24T07:04:28.920Z,3.13
2023-03-24T07:07:12.515Z,2.55
2023-03-24T07:09:44.578Z,3.20
2023-03-24T07:12:14.407Z,2.83
2023-03-24T07:14:42.125Z,3.25
2023-03-24T07:17:09.378Z,2.75
2023-03-24T07:19:38.019Z,2.50
2023-03-24T07:22:08.224Z,2.55
2023-03-24T07:24:35.890Z,2.25
2023-03-24T07:27:03.187Z,2.33
2023-03-24T07:29:31.081Z,2.00
2023-03-24T07:32:00.869Z,2.65
2023-03-24T07:34:28.390Z,3.00
2023-03-24T07:36:57.267Z,2.63
2023-03-24T07:39:24.658Z,3.45
2023-03-24T07:41:52.441Z,3.03
2023-03-24T07:44:19.892Z,2.67
2023-03-24T07:46:47.387Z,2.70
2023-03-24T07:49:19.442Z,3.15
2023-03-24T07:51:47.334Z,2.72
2023-03-24T07:54:15.982Z,2.42
2023-03-24T07:56:43.315Z,3.33
2023-03-24T07:59:10.697Z,3.45
2023-03-24T08:01:38.746Z,3.35
2023-03-24T08:04:06.648Z,3.47
2023-03-24T08:06:34.705Z,3.78
2023-03-24T08:09:02.016Z,3.50
2023-03-24T08:11:30.668Z,3.13
2023-03-24T08:13:58.201Z,3.92
2023-03-24T08:16:25.685Z,3.67
2023-03-24T08:18:53.104Z,3.95
2023-03-24T08:21:20.508Z,3.92
2023-03-24T08:23:47.958Z,4.07
2023-03-24T08:26:15.612Z,4.20
2023-03-24T08:28:44.272Z,4.10
2023-03-24T08:31:11.795Z,3.60
2023-03-24T08:33:39.339Z,3.50
2023-03-24T08:36:07.046Z,3.83
2023-03-24T08:38:38.596Z,3.58
2023-03-24T08:41:07.091Z,3.50
2023-03-24T08:43:35.372Z,4.18
2023-03-24T08:46:04.180Z,3.42
2023-03-24T08:48:32.769Z,2.97
2023-03-24T08:51:00.102Z,3.00
2023-03-24T08:53:27.372Z,3.58
2023-03-24T08:55:54.690Z,3.17
2023-03-24T08:58:22.868Z,2.92
2023-03-24T09:00:50.583Z,3.05
2023-03-24T09:03:21.851Z,3.42
2023-03-24T09:05:49.441Z,2.75
2023-03-24T09:08:18.216Z,3.20
2023-03-24T09:10:46.661Z,3.00
2023-03-24T09:13:13.963Z,2.70
2023-03-24T09:15:42.034Z,2.97
2023-03-24T09:18:09.357Z,2.50
2023-03-24T09:20:38.073Z,2.53
2023-03-24T09:23:05.436Z,2.15
2023-03-24T09:25:32.742Z,2.58
2023-03-24T09:28:00.764Z,2.67
2023-03-24T09:30:30.089Z,2.83
2023-03-24T09:32:58.870Z,2.88
2023-03-24T09:35:27.075Z,2.20
2023-03-24T09:37:56.001Z,2.53
2023-03-24T09:40:25.083Z,2.15
2023-03-24T09:42:55.727Z,2.42
2023-03-24T09:45:24.735Z,2.40
2023-03-24T09:47:54.222Z,2.05
2023-03-24T09:50:23.656Z,2.40
2023-03-24T09:52:53.716Z,2.95
2023-03-24T09:55:24.732Z,2.35
2023-03-24T09:57:52.429Z,3.35
2023-03-24T10:00:20.364Z,2.63
2023-03-24T10:02:49.677Z,3.30
2023-03-24T10:05:21.474Z,3.17
2023-03-24T10:07:52.244Z,3.10
2023-03-24T10:10:24.947Z,2.55
2023-03-24T10:12:56.091Z,2.33
2023-03-24T10:15:36.756Z,2.63
2023-03-24T10:18:15.396Z,2.42
2023-03-24T10:20:45.133Z,2.75
2023-03-24T10:23:21.463Z,2.90
2023-03-24T10:25:52.216Z,2.33
2023-03-24T10:28:24.493Z,2.63
2023-03-24T10:30:52.915Z,2.65
2023-03-24T10:33:20.814Z,2.53
2023-03-24T10:35:52.609Z,2.67
2023-03-24T10:38:20.907Z,1.92
2023-03-24T10:40:48.518Z,2.58
2023-03-24T10:43:19.077Z,2.88
2023-03-24T10:45:48.656Z,2.17
2023-03-24T10:48:34.239Z,2.10
2023-03-24T10:51:01.571Z,2.35
2023-03-24T10:53:28.900Z,2.42
2023-03-24T10:55:56.226Z,2.50
2023-03-24T10:58:29.086Z,2.53
2023-03-24T11:00:58.058Z,2.55
2023-03-24T11:03:28.436Z,1.80
2023-03-24T11:05:59.439Z,2.00
2023-03-24T11:08:28.398Z,1.70
2023-03-24T11:10:55.833Z,2.00
2023-03-24T11:13:28.990Z,2.08
2023-03-24T11:16:00.606Z,2.47
2023-03-24T11:18:27.879Z,2.00
2023-03-24T11:20:58.017Z,2.83
2023-03-24T11:23:27.719Z,2.10
2023-03-24T11:26:03.254Z,2.20
2023-03-24T11:28:36.162Z,2.25
2023-03-24T11:31:07.871Z,2.40
2023-03-24T11:33:41.861Z,2.72
2023-03-24T11:36:30.083Z,1.70
2023-03-24T11:39:00.920Z,2.35
2023-03-24T11:41:28.741Z,1.98
2023-03-24T11:44:08.723Z,2.10
2023-03-24T11:46:39.029Z,1.85
2023-03-24T11:49:07.466Z,1.95
2023-03-24T11:51:36.912Z,2.13
2023-03-24T11:54:05.776Z,2.83
2023-03-24T11:56:37.084Z,2.10
2023-03-24T11:59:08.639Z,2.05
2023-03-24T12:01:39.324Z,2.17
2023-03-24T12:04:11.433Z,1.85
2023-03-24T12:06:49.867Z,1.92
2023-03-24T12:09:20.968Z,1.92
2023-03-24T12:11:53.248Z,2.28
2023-03-24T12:14:25.714Z,1.73
2023-03-24T12:16:59.769Z,2.00
2023-03-24T12:19:37.203Z,1.57
2023-03-24T12:22:11.348Z,2.25
2023-03-24T12:24:46.875Z,1.80
2023-03-24T12:27:19.376Z,1.92
2023-03-24T12:29:53.113Z,1.92
2023-03-24T12:32:26.572Z,1.70
2023-03-24T12:35:01.696Z,2.15
2023-03-24T12:37:34.692Z,2.75
2023-03-24T12:40:10.030Z,1.88
2023-03-24T12:42:40.078Z,2.63
2023-03-24T12:45:22.371Z,1.85
2023-03-24T12:48:12.168Z,1.90
2023-03-24T12:50:46.440Z,1.40
2023-03-24T12:53:24.090Z,1.63
2023-03-24T12:55:53.045Z,1.55
2023-03-24T12:58:23.132Z,1.40
2023-03-24T13:00:56.876Z,1.92
2023-03-24T13:03:28.099Z,1.52
2023-03-24T13:06:04.491Z,1.40
2023-03-24T13:08:39.006Z,1.15
2023-03-24T13:11:08.786Z,1.33
2023-03-24T13:13:38.598Z,1.73
2023-03-24T13:16:07.903Z,1.70
2023-03-24T13:18:38.374Z,1.70
2023-03-24T13:21:07.368Z,1.30
2023-03-24T13:23:39.404Z,1.10
2023-03-24T13:26:11.467Z,1.30
2023-03-24T13:28:41.942Z,1.98
2023-03-24T13:31:10.534Z,1.48
2023-03-24T13:33:40.706Z,1.20
2023-03-24T13:36:14.890Z,1.50
2023-03-24T13:38:43.835Z,1.65
2023-03-24T13:41:13.256Z,0.98
2023-03-24T13:43:46.749Z,1.65
2023-03-24T13:46:14.568Z,1.38
2023-03-24T13:48:44.498Z,1.73
2023-03-24T13:51:16.971Z,1.92
2023-03-24T13:53:45.870Z,1.50
2023-03-24T13:56:13.707Z,1.85
2023-03-24T13:59:05.666Z,1.50
2023-03-24T14:01:33.869Z,1.58
2023-03-24T14:04:23.702Z,1.80
2023-03-24T14:06:51.709Z,1.33
2023-03-24T14:09:21.366Z,1.80
2023-03-24T14:12:12.807Z,1.45
2023-03-24T14:14:55.012Z,1.25
2023-03-24T14:17:23.119Z,1.30
2023-03-24T14:20:13.364Z,1.10
2023-03-24T14:22:41.568Z,1.20
2023-03-24T14:25:22.046Z,1.45
2023-03-24T14:27:50.131Z,1.10
2023-03-24T14:30:20.528Z,1.38
2023-03-24T14:32:48.731Z,1.20
2023-03-24T14:35:26.058Z,1.30
2023-03-24T14:37:54.805Z,1.17
2023-03-24T14:40:29.576Z,0.98
2023-03-24T14:42:58.050Z,0.93
2023-03-24T14:45:42.194Z,0.90
2023-03-24T14:48:22.471Z,1.00
2023-03-24T14:50:51.559Z,0.55
2023-03-24T14:53:19.732Z,0.75
2023-03-24T14:55:48.447Z,0.90
2023-03-24T14:58:21.456Z,0.60
2023-03-24T15:01:06.461Z,0.90
2023-03-24T15:03:38.210Z,1.10
2023-03-24T15:06:14.996Z,0.90
2023-03-24T15:08:45.540Z,1.45
2023-03-24T15:11:15.829Z,1.13
2023-03-24T15:13:43.976Z,1.10
2023-03-24T15:16:18.401Z,1.60
2023-03-24T15:18:59.763Z,0.75
2023-03-24T15:21:31.346Z,1.55
2023-03-24T15:23:58.733Z,1.33
2023-03-24T15:26:26.668Z,1.23
2023-03-24T15:28:57.835Z,1.20
2023-03-24T15:31:29.951Z,1.30
2023-03-24T15:34:07.868Z,1.17
2023-03-24T15:36:39.840Z,1.50
2023-03-24T15:39:21.089Z,1.02
2023-03-24T15:41:51.715Z,1.33
2023-03-24T15:44:20.764Z,1.20
2023-03-24T15:46:48.560Z,1.40
2023-03-24T15:49:21.795Z,1.48
2023-03-24T15:51:51.665Z,1.58
2023-03-24T15:54:23.512Z,1.55
2023-03-24T15:57:01.006Z,1.60
2023-03-24T15:59:33.658Z,1.65
2023-03-24T16:02:01.255Z,1.58
2023-03-24T16:04:29.916Z,2.17
2023-03-24T16:06:58.714Z,1.17
2023-03-24T16:09:28.094Z,1.30
2023-03-24T16:11:55.475Z,1.25
2023-03-24T16:14:23.705Z,1.20
2023-03-24T16:16:54.042Z,1.10
2023-03-24T16:19:21.422Z,0.70
2023-03-24T16:21:48.751Z,0.70
2023-03-24T16:24:17.458Z,0.95
2023-03-24T16:26:44.789Z,1.27
2023-03-24T16:29:16.509Z,0.93
2023-03-24T16:31:44.183Z,1.17
2023-03-24T16:34:11.482Z,1.30
2023-03-24T16:36:38.841Z,1.00
2023-03-24T16:39:10.879Z,0.90
2023-03-24T16:41:39.560Z,0.85
2023-03-24T16:44:06.892Z,0.80
2023-03-24T16:46:35.345Z,0.68
2023-03-24T16:49:03.556Z,0.90
2023-03-24T16:51:30.885Z,0.70
2023-03-24T16:53:58.418Z,0.60
2023-03-24T16:56:26.350Z,0.82
2023-03-24T16:58:56.199Z,0.60
2023-03-24T17:01:28.370Z,1.08
2023-03-24T17:03:56.028Z,0.80
2023-03-24T17:06:24.101Z,0.60
2023-03-24T17:08:51.534Z,0.80
2023-03-24T17:11:20.948Z,0.82
2023-03-24T17:13:48.348Z,1.10
2023-03-24T17:16:17.152Z,1.00
2023-03-24T17:18:44.516Z,0.73
2023-03-24T17:21:12.683Z,0.90
2023-03-24T17:23:40.819Z,1.15
2023-03-24T17:26:08.132Z,1.05
2023-03-24T17:28:35.956Z,1.90
2023-03-24T17:31:03.351Z,1.70
2023-03-24T17:33:32.042Z,1.10
2023-03-24T17:35:59.398Z,1.23
2023-03-24T17:38:26.985Z,1.30
2023-03-24T17:40:59.639Z,1.65
2023-03-24T17:43:27.423Z,1.77
2023-03-24T17:45:56.953Z,2.08
2023-03-24T17:48:24.464Z,2.35
2023-03-24T17:50:53.656Z,1.38
2023-03-24T17:53:25.521Z,1.23
2023-03-24T17:55:53.709Z,1.30
2023-03-24T17:58:21.284Z,1.50
2023-03-24T18:00:48.909Z,1.40
2023-03-24T18:03:16.590Z,1.20
2023-03-24T18:05:44.896Z,1.15
2023-03-24T18:08:13.638Z,1.27
2023-03-24T18:10:41.031Z,1.52
2023-03-24T18:13:08.437Z,1.65
2023-03-24T18:15:35.919Z,1.15
2023-03-24T18:18:03.376Z,1.20
2023-03-24T18:20:31.924Z,1.27
2023-03-24T18:22:59.304Z,1.33
2023-03-24T18:25:28.005Z,1.60
2023-03-24T18:27:56.087Z,1.23
2023-03-24T18:30:23.461Z,1.83
2023-03-24T18:32:50.894Z,1.27
2023-03-24T18:35:18.258Z,1.42
2023-03-24T18:37:45.617Z,3.10
2023-03-24T18:40:14.413Z,1.40
2023-03-24T18:42:43.132Z,3.25
2023-03-24T18:45:17.085Z,1.55
2023-03-24T18:47:44.757Z,1.57
2023-03-24T18:50:12.280Z,1.50
2023-03-24T18:52:39.885Z,1.65
2023-03-24T18:55:08.057Z,1.60
2023-03-24T18:57:35.388Z,1.67
2023-03-24T19:00:06.569Z,2.00
2023-03-24T19:02:34.118Z,1.67
2023-03-24T19:05:02.295Z,1.38
2023-03-24T19:07:29.623Z,1.80
2023-03-24T19:09:56.920Z,1.65
2023-03-24T19:12:24.259Z,5.55
2023-03-24T19:14:54.046Z,2.60
2023-03-24T19:17:23.522Z,2.30
2023-03-24T19:19:50.814Z,1.55
2023-03-24T19:22:21.860Z,1.27
2023-03-24T19:24:49.267Z,1.65
2023-03-24T19:27:17.493Z,1.20
2023-03-24T19:29:45.121Z,1.58
2023-03-24T19:32:12.504Z,1.40
2023-03-24T19:34:41.250Z,1.33
2023-03-24T19:37:10.106Z,1.00
2023-03-24T19:39:39.349Z,1.88
2023-03-24T19:42:07.690Z,1.30
2023-03-24T19:44:35.560Z,1.75
2023-03-24T19:47:03.090Z,1.23
2023-03-24T19:49:30.407Z,1.33
2023-03-24T19:51:59.154Z,1.80
2023-03-24T19:54:26.500Z,1.30
2023-03-24T19:56:54.452Z,1.20
2023-03-24T19:59:22.011Z,1.30
2023-03-24T20:01:49.365Z,1.48
2023-03-24T20:04:16.736Z,1.83
2023-03-24T20:06:45.698Z,1.60
2023-03-24T20:09:14.434Z,0.90
2023-03-24T20:11:41.786Z,1.27
2023-03-24T20:14:09.175Z,1.05
2023-03-24T20:16:36.560Z,1.10
2023-03-24T20:19:03.923Z,0.85
2023-03-24T20:21:31.420Z,0.70
2023-03-24T20:23:58.764Z,1.00
2023-03-24T20:26:29.240Z,0.85
2023-03-24T20:28:57.483Z,1.20
2023-03-24T20:31:25.983Z,1.08
2023-03-24T20:33:53.407Z,0.85
2023-03-24T20:36:20.805Z,1.02
2023-03-24T20:38:48.127Z,0.88
2023-03-24T20:41:16.543Z,0.45
2023-03-24T20:43:45.282Z,4.28
2023-03-24T20:46:14.409Z,0.70
2023-03-24T20:48:41.890Z,0.60
2023-03-24T20:51:09.427Z,0.93
2023-03-24T20:53:36.767Z,0.82
2023-03-24T20:56:06.430Z,0.90
2023-03-24T20:58:33.823Z,0.77
2023-03-24T21:01:05.892Z,1.00
2023-03-24T21:03:33.330Z,0.90
2023-03-24T21:06:00.839Z,0.80
2023-03-24T21:08:28.249Z,0.93
2023-03-24T21:10:56.017Z,1.00
2023-03-24T21:13:23.374Z,0.70
2023-03-24T21:15:50.906Z,0.80
2023-03-24T21:18:19.624Z,0.80
2023-03-24T21:20:55.052Z,0.80
2023-03-24T21:23:22.820Z,1.35
2023-03-24T21:25:50.498Z,0.80
2023-03-24T21:28:18.763Z,0.73
2023-03-24T21:30:46.516Z,0.57
2023-03-24T21:33:15.190Z,0.80
2023-03-24T21:35:43.847Z,0.90
2023-03-24T21:38:11.695Z,0.70
2023-03-24T21:40:38.998Z,0.63
2023-03-24T21:43:06.612Z,0.90
2023-03-24T21:45:35.862Z,0.50
2023-03-24T21:48:05.708Z,0.70
2023-03-24T21:50:34.607Z,0.93
2023-03-24T21:53:06.346Z,0.70
2023-03-24T21:55:33.718Z,0.80
2023-03-24T21:58:01.477Z,1.27
2023-03-24T22:00:30.479Z,0.80
2023-03-24T22:02:58.019Z,3.75
2023-03-24T22:05:27.593Z,4.68
2023-03-24T22:07:55.830Z,1.23
2023-03-24T22:10:29.520Z,0.80
2023-03-24T22:12:57.318Z,1.00
2023-03-24T22:15:24.624Z,0.93
2023-03-24T22:17:51.938Z,0.80
2023-03-24T22:20:19.397Z,0.90
2023-03-24T22:22:47.025Z,0.65
2023-03-24T22:25:16.007Z,0.90
2023-03-24T22:27:44.893Z,0.90
2023-03-24T22:30:13.413Z,0.70
2023-03-24T22:32:41.349Z,0.80
2023-03-24T22:35:09.331Z,0.80
2023-03-24T22:37:36.647Z,1.08
2023-03-24T22:40:04.902Z,0.90
2023-03-24T22:42:32.289Z,0.73
2023-03-24T22:45:00.971Z,0.68
2023-03-24T22:47:28.831Z,0.82
2023-03-24T22:49:56.178Z,0.90
2023-03-24T22:52:23.483Z,1.10
2023-03-24T22:54:50.818Z,0.90
2023-03-24T22:57:18.622Z,0.90
2023-03-24T22:59:46.010Z,1.25
2023-03-24T23:02:14.752Z,1.40
2023-03-24T23:04:44.769Z,1.00
2023-03-24T23:07:12.202Z,0.70
2023-03-24T23:09:42.889Z,0.85
2023-03-24T23:12:11.160Z,0.80
2023-03-24T23:14:38.993Z,0.82
2023-03-24T23:17:09.224Z,0.82
2023-03-24T23:19:38.016Z,0.70
2023-03-24T23:22:06.674Z,0.90
2023-03-24T23:24:39.152Z,1.25
2023-03-24T23:27:06.988Z,1.00
2023-03-24T23:29:34.332Z,0.82
2023-03-24T23:32:01.625Z,1.00
2023-03-24T23:34:31.295Z,1.13
2023-03-24T23:37:03.467Z,0.90
2023-03-24T23:39:31.698Z,0.80
2023-03-24T23:41:59.022Z,0.95
2023-03-24T23:44:26.335Z,1.00
2023-03-24T23:46:53.658Z,1.00
2023-03-24T23:49:21.013Z,1.17
2023-03-24T23:51:48.283Z,1.30
2023-03-24T23:54:17.400Z,1.23
2023-03-24T23:56:46.896Z,1.05
2023-03-24T23:59:14.263Z,1.45
